Millersport, Ohio
Current Conditions -  °F | °C
As of 8:54 AM on Saturday 20 Dec 2014 (Local Time) from KVTA Reporting Station
Overcast Overcast  
Wind Chill: 31°   Ceiling: 1900
Heat Index: 31°   Visibility: 9mi
Dew Point: 23°   Wind: 0mph
Humidity: 72%   Direction: NA
Pressure: 30.28"   Gusts: NA
Location:  39.9°N, 82.53°W
Report Text: KVTA 201354Z AUTO 00000KT 9SM OVC019 M01/M05 A3028 RMK AO2 SLP264 T10061050
Loading
Personal Weather Stations






























Interactive Weather Map New forecast layout! Learn more

10-Day Weather Forecast

Advertisements
Track Severe Weather on mobile